createdAt,value
2023-02-26T00:01:59.444Z,3.80
2023-02-26T00:04:28.057Z,3.70
2023-02-26T00:07:18.361Z,3.70
2023-02-26T00:09:48.717Z,3.70
2023-02-26T00:12:17.232Z,3.60
2023-02-26T00:14:47.729Z,3.60
2023-02-26T00:17:33.871Z,3.40
2023-02-26T00:20:04.602Z,3.30
2023-02-26T00:22:36.427Z,3.00
2023-02-26T00:25:04.960Z,3.00
2023-02-26T00:27:33.388Z,2.90
2023-02-26T00:30:03.521Z,2.90
2023-02-26T00:32:33.090Z,3.00
2023-02-26T00:35:02.947Z,3.10
2023-02-26T00:40:48.052Z,3.20
2023-02-26T00:43:18.799Z,3.50
2023-02-26T00:45:57.451Z,3.50
2023-02-26T00:48:48.741Z,4.00
2023-02-26T00:51:24.930Z,4.40
2023-02-26T00:54:00.109Z,4.70
2023-02-26T00:56:29.112Z,4.70
2023-02-26T00:58:58.204Z,5.00
2023-02-26T01:01:27.992Z,5.30
2023-02-26T01:03:58.488Z,5.40
2023-02-26T01:06:33.734Z,5.20
2023-02-26T01:09:10.629Z,5.10
2023-02-26T01:11:38.891Z,5.10
2023-02-26T01:14:08.007Z,5.30
2023-02-26T01:16:45.568Z,5.40
2023-02-26T01:19:21.297Z,5.50
2023-02-26T01:21:58.452Z,5.20
2023-02-26T01:24:29.221Z,5.00
2023-02-26T01:26:59.473Z,5.20
2023-02-26T01:29:28.155Z,4.90
2023-02-26T01:32:05.330Z,5.10
2023-02-26T01:34:38.619Z,4.90
2023-02-26T01:37:20.719Z,4.50
2023-02-26T01:40:04.458Z,4.40
2023-02-26T01:42:39.239Z,4.60
2023-02-26T01:45:14.161Z,4.60
2023-02-26T01:47:49.472Z,4.40
2023-02-26T01:50:21.895Z,4.40
2023-02-26T01:53:24.242Z,4.60
2023-02-26T01:55:57.162Z,4.80
2023-02-26T01:58:29.396Z,5.10
2023-02-26T02:00:57.502Z,5.30
2023-02-26T02:03:30.209Z,5.60
2023-02-26T02:06:03.971Z,5.70
2023-02-26T02:08:36.063Z,5.80
2023-02-26T02:11:08.039Z,6.00
2023-02-26T02:13:47.569Z,5.70
2023-02-26T02:16:26.946Z,5.50
2023-02-26T02:19:20.116Z,5.50
2023-02-26T02:22:03.434Z,5.50
2023-02-26T02:24:41.932Z,5.90
2023-02-26T02:27:17.846Z,6.00
2023-02-26T02:30:26.486Z,6.20
2023-02-26T02:33:00.510Z,6.20
2023-02-26T02:35:33.942Z,6.20
2023-02-26T02:38:08.886Z,6.20
2023-02-26T02:40:41.818Z,6.10
2023-02-26T02:43:14.035Z,6.20
2023-02-26T02:45:46.452Z,6.30
2023-02-26T02:48:25.821Z,6.10
2023-02-26T02:50:59.060Z,6.40
2023-02-26T02:53:32.181Z,6.40
2023-02-26T02:56:05.312Z,6.40
2023-02-26T02:58:41.634Z,6.40
2023-02-26T03:01:16.699Z,5.80
2023-02-26T03:03:53.646Z,5.50
2023-02-26T03:06:24.388Z,5.50
2023-02-26T03:08:54.411Z,5.50
2023-02-26T03:11:24.760Z,5.10
2023-02-26T03:13:54.583Z,5.00
2023-02-26T03:16:45.250Z,4.90
2023-02-26T03:19:22.103Z,4.70
2023-02-26T03:22:01.118Z,4.50
2023-02-26T03:24:52.202Z,4.60
2023-02-26T03:27:26.327Z,4.70
2023-02-26T03:29:58.455Z,4.80
2023-02-26T03:32:32.076Z,4.70
2023-02-26T03:35:09.926Z,4.50
2023-02-26T03:37:42.360Z,4.40
2023-02-26T03:40:17.544Z,4.40
2023-02-26T03:42:49.461Z,4.70
2023-02-26T03:45:25.408Z,4.30
2023-02-26T03:47:55.499Z,4.10
2023-02-26T03:50:33.667Z,4.50
2023-02-26T03:53:25.230Z,4.90
2023-02-26T03:56:04.084Z,5.10
2023-02-26T03:58:32.442Z,5.30
2023-02-26T04:01:21.688Z,5.50
2023-02-26T04:03:57.085Z,5.70
2023-02-26T04:06:27.505Z,5.80
2023-02-26T04:08:57.765Z,5.80
2023-02-26T04:11:28.516Z,6.00
2023-02-26T04:13:56.598Z,6.20
2023-02-26T04:16:25.034Z,6.30
2023-02-26T04:18:56.835Z,6.40
2023-02-26T04:21:26.792Z,6.10
2023-02-26T04:23:57.954Z,6.30
2023-02-26T04:26:27.297Z,6.30
2023-02-26T04:28:55.624Z,6.30
2023-02-26T04:31:24.622Z,6.20
2023-02-26T04:33:53.114Z,6.40
2023-02-26T04:36:21.973Z,6.20
2023-02-26T04:38:51.571Z,6.30
2023-02-26T04:41:20.116Z,6.30
2023-02-26T04:43:50.401Z,6.00
2023-02-26T04:46:25.354Z,6.10
2023-02-26T04:48:54.184Z,6.10
2023-02-26T04:51:22.912Z,6.10
2023-02-26T04:53:55.172Z,6.10
2023-02-26T04:56:25.875Z,6.30
2023-02-26T04:58:55.259Z,6.30
2023-02-26T05:01:28.809Z,6.10
2023-02-26T05:03:57.502Z,6.20
2023-02-26T05:06:26.446Z,6.00
2023-02-26T05:08:56.843Z,5.70
2023-02-26T05:11:24.988Z,5.40
2023-02-26T05:13:53.020Z,5.40
2023-02-26T05:16:21.901Z,5.60
2023-02-26T05:18:50.048Z,5.80
2023-02-26T05:21:19.105Z,5.80
2023-02-26T05:23:48.546Z,6.00
2023-02-26T05:26:17.897Z,6.00
2023-02-26T05:28:46.632Z,5.70
2023-02-26T05:31:16.776Z,5.70
2023-02-26T05:33:45.304Z,5.60
2023-02-26T05:36:14.130Z,5.70
2023-02-26T05:38:42.337Z,5.80
2023-02-26T05:41:12.570Z,5.90
2023-02-26T05:43:41.958Z,5.90
2023-02-26T05:46:10.889Z,5.80
2023-02-26T05:48:39.478Z,5.90
2023-02-26T05:51:11.647Z,5.80
2023-02-26T05:53:40.168Z,5.70
2023-02-26T05:56:08.837Z,5.80
2023-02-26T05:58:38.477Z,5.90
2023-02-26T06:01:09.555Z,5.80
2023-02-26T06:03:40.169Z,6.10
2023-02-26T06:09:00.445Z,6.20
2023-02-26T06:11:28.784Z,6.10
2023-02-26T06:13:58.573Z,6.10
2023-02-26T06:16:28.482Z,5.90
2023-02-26T06:18:57.259Z,5.90
2023-02-26T06:21:25.338Z,5.90
2023-02-26T06:23:54.610Z,6.20
2023-02-26T06:26:23.996Z,6.00
2023-02-26T06:28:54.601Z,5.90
2023-02-26T06:31:22.672Z,5.90
2023-02-26T06:33:54.334Z,6.20
2023-02-26T06:36:22.414Z,6.00
2023-02-26T06:38:50.405Z,6.00
2023-02-26T06:41:19.956Z,6.00
2023-02-26T06:43:48.019Z,5.90
2023-02-26T06:46:16.609Z,5.80
2023-02-26T06:48:45.548Z,5.80
2023-02-26T06:51:15.402Z,6.00
2023-02-26T06:53:44.895Z,6.10
2023-02-26T06:56:12.925Z,5.70
2023-02-26T06:58:40.887Z,5.60
2023-02-26T07:01:11.177Z,5.70
2023-02-26T07:03:39.184Z,5.90
2023-02-26T07:06:26.006Z,5.70
2023-02-26T07:08:59.150Z,5.70
2023-02-26T07:11:28.352Z,5.70
2023-02-26T07:13:56.468Z,5.70
2023-02-26T07:16:24.834Z,5.70
2023-02-26T07:18:53.031Z,5.80
2023-02-26T07:21:25.603Z,5.90
2023-02-26T07:23:57.331Z,6.10
2023-02-26T07:26:26.176Z,6.10
2023-02-26T07:28:56.615Z,6.10
2023-02-26T07:31:25.023Z,6.10
2023-02-26T07:33:53.143Z,5.90
2023-02-26T07:36:23.957Z,5.70
2023-02-26T07:38:52.560Z,5.90
2023-02-26T07:41:22.078Z,5.80
2023-02-26T07:43:51.091Z,5.70
2023-02-26T07:46:19.348Z,5.80
2023-02-26T07:48:47.348Z,5.60
2023-02-26T07:51:16.621Z,5.80
2023-02-26T07:53:45.001Z,5.70
2023-02-26T07:56:13.629Z,5.60
2023-02-26T07:58:43.113Z,5.70
2023-02-26T08:01:12.054Z,5.60
2023-02-26T08:03:40.385Z,5.60
2023-02-26T08:06:09.966Z,5.60
2023-02-26T08:08:38.171Z,5.60
2023-02-26T08:11:07.016Z,5.80
2023-02-26T08:13:35.001Z,5.70
2023-02-26T08:18:55.649Z,5.90
2023-02-26T08:21:23.717Z,5.50
2023-02-26T08:23:52.331Z,5.40
2023-02-26T08:26:20.786Z,5.60
2023-02-26T08:28:49.619Z,5.60
2023-02-26T08:31:19.911Z,5.50
2023-02-26T08:33:49.451Z,5.40
2023-02-26T08:36:17.497Z,5.30
2023-02-26T08:38:46.712Z,5.40
2023-02-26T08:41:15.659Z,5.30
2023-02-26T08:43:43.711Z,5.40
2023-02-26T08:46:12.634Z,5.30
2023-02-26T08:48:42.987Z,5.10
2023-02-26T08:51:11.387Z,5.20
2023-02-26T08:53:39.870Z,5.00
2023-02-26T08:56:08.989Z,5.00
2023-02-26T08:58:37.383Z,5.10
2023-02-26T09:01:05.657Z,5.00
2023-02-26T09:03:33.704Z,4.80
2023-02-26T09:06:04.498Z,4.90
2023-02-26T09:08:34.380Z,4.70
2023-02-26T09:11:02.985Z,4.60
2023-02-26T09:13:31.616Z,4.70
2023-02-26T09:16:01.697Z,4.60
2023-02-26T09:18:29.895Z,4.70
2023-02-26T09:20:58.783Z,4.50
2023-02-26T09:23:28.238Z,4.80
2023-02-26T09:25:58.224Z,4.90
2023-02-26T09:28:27.833Z,4.90
2023-02-26T09:30:56.837Z,4.90
2023-02-26T09:33:25.705Z,5.10
2023-02-26T09:35:54.577Z,5.20
2023-02-26T09:38:22.807Z,5.30
2023-02-26T09:40:57.414Z,5.40
2023-02-26T09:44:10.531Z,5.50
2023-02-26T09:46:47.385Z,5.50
2023-02-26T09:49:34.261Z,5.30
2023-02-26T09:52:09.627Z,5.60
2023-02-26T09:54:45.404Z,5.60
2023-02-26T09:57:22.823Z,5.80
2023-02-26T09:59:52.397Z,5.80
2023-02-26T10:02:25.855Z,6.00
2023-02-26T10:05:06.782Z,6.20
2023-02-26T10:07:43.628Z,6.00
2023-02-26T10:10:26.048Z,6.10
2023-02-26T10:12:55.665Z,6.00
2023-02-26T10:15:27.231Z,6.30
2023-02-26T10:18:06.258Z,6.10
2023-02-26T10:20:40.490Z,5.90
2023-02-26T10:23:18.783Z,5.90
2023-02-26T10:25:51.842Z,5.90
2023-02-26T10:28:47.202Z,6.00
2023-02-26T10:31:26.109Z,6.20
2023-02-26T10:34:07.365Z,6.10
2023-02-26T10:36:45.688Z,6.30
2023-02-26T10:39:23.954Z,6.60
2023-02-26T10:41:53.441Z,6.90
2023-02-26T10:44:30.653Z,7.20
2023-02-26T10:47:06.027Z,7.60
2023-02-26T10:49:48.256Z,7.40
2023-02-26T10:52:18.238Z,7.90
2023-02-26T10:54:59.800Z,8.50
2023-02-26T10:57:33.371Z,9.30
2023-02-26T11:00:04.342Z,10.00
2023-02-26T11:02:42.786Z,10.20
2023-02-26T11:05:18.558Z,10.20
2023-02-26T11:07:51.038Z,10.40
2023-02-26T11:10:24.260Z,10.80
2023-02-26T11:12:53.540Z,10.60
2023-02-26T11:15:28.732Z,10.60
2023-02-26T11:18:00.567Z,10.40
2023-02-26T11:20:36.737Z,9.90
2023-02-26T11:23:10.478Z,9.90
2023-02-26T11:25:39.657Z,9.70
2023-02-26T11:28:21.460Z,10.10
2023-02-26T11:30:54.481Z,10.30
2023-02-26T11:33:28.495Z,11.10
2023-02-26T11:36:04.245Z,11.70
2023-02-26T11:38:34.089Z,12.10
2023-02-26T11:41:02.954Z,12.60
2023-02-26T11:43:45.124Z,12.60
2023-02-26T11:46:17.998Z,12.30
2023-02-26T11:48:48.848Z,12.20
2023-02-26T11:51:25.264Z,12.50
2023-02-26T11:53:56.755Z,12.40
2023-02-26T11:56:30.593Z,12.00
2023-02-26T11:59:04.749Z,11.90
2023-02-26T12:01:34.246Z,12.00
2023-02-26T12:04:04.348Z,11.30
2023-02-26T12:06:32.827Z,11.30
2023-02-26T12:09:00.948Z,11.10
2023-02-26T12:11:52.791Z,11.50
2023-02-26T12:14:42.280Z,11.80
2023-02-26T12:17:26.212Z,12.00
2023-02-26T12:19:59.820Z,12.20
2023-02-26T12:22:47.018Z,12.70
2023-02-26T12:25:24.558Z,12.50
2023-02-26T12:28:15.173Z,12.90
2023-02-26T12:31:04.276Z,13.10
2023-02-26T12:33:45.737Z,13.00
2023-02-26T12:36:31.627Z,12.60
2023-02-26T12:39:15.742Z,12.10
2023-02-26T12:42:05.753Z,11.40
2023-02-26T12:44:52.180Z,11.30
2023-02-26T12:47:34.334Z,11.20
2023-02-26T12:50:23.212Z,11.10
2023-02-26T12:53:20.775Z,11.40
2023-02-26T12:56:04.174Z,11.50
2023-02-26T12:59:02.941Z,11.40
2023-02-26T13:02:00.605Z,11.30
2023-02-26T13:04:45.418Z,10.60
2023-02-26T13:07:42.168Z,10.80
2023-02-26T13:10:21.070Z,11.10
2023-02-26T13:13:00.189Z,11.50
2023-02-26T13:15:52.842Z,11.90
2023-02-26T13:18:27.548Z,12.20
2023-02-26T13:21:00.778Z,12.50
2023-02-26T13:23:37.535Z,13.10
2023-02-26T13:26:09.517Z,14.10
2023-02-26T13:28:43.358Z,15.10
2023-02-26T13:31:16.880Z,15.40
2023-02-26T13:33:48.536Z,16.30
2023-02-26T13:36:19.010Z,17.20
2023-02-26T13:39:05.345Z,18.10
2023-02-26T13:41:45.923Z,19.00
2023-02-26T13:44:27.203Z,18.40
2023-02-26T13:47:17.179Z,17.40
2023-02-26T13:49:57.161Z,15.80
2023-02-26T13:52:28.781Z,14.40
2023-02-26T13:54:59.995Z,13.40
2023-02-26T13:57:48.594Z,12.90
2023-02-26T14:00:28.042Z,12.20
2023-02-26T14:02:58.354Z,12.00
2023-02-26T14:05:33.587Z,12.80
2023-02-26T14:08:27.707Z,14.00
2023-02-26T14:11:00.673Z,15.40
2023-02-26T14:13:36.522Z,16.00
2023-02-26T14:16:18.302Z,15.60
2023-02-26T14:18:52.793Z,14.90
2023-02-26T14:21:40.787Z,14.20
2023-02-26T14:24:19.825Z,13.50
2023-02-26T14:26:51.165Z,13.80
2023-02-26T14:29:27.839Z,14.60
2023-02-26T14:32:15.475Z,15.30
2023-02-26T14:34:52.153Z,16.60
2023-02-26T14:37:25.291Z,16.80
2023-02-26T14:40:00.468Z,17.20
2023-02-26T14:42:36.468Z,17.20
2023-02-26T14:45:26.460Z,17.60
2023-02-26T14:47:56.552Z,17.80
2023-02-26T14:50:26.853Z,17.00
2023-02-26T14:53:38.321Z,15.80
2023-02-26T14:56:12.567Z,14.90
2023-02-26T14:58:56.495Z,14.10
2023-02-26T15:01:50.904Z,13.70
2023-02-26T15:04:37.825Z,13.00
2023-02-26T15:07:39.536Z,12.80
2023-02-26T15:10:19.128Z,12.70
2023-02-26T15:13:02.962Z,12.60
2023-02-26T15:15:40.803Z,12.60
2023-02-26T15:18:35.986Z,12.00
2023-02-26T15:21:13.799Z,11.30
2023-02-26T15:23:46.039Z,11.00
2023-02-26T15:26:20.457Z,10.70
2023-02-26T15:28:49.257Z,10.60
2023-02-26T15:31:24.777Z,10.80
2023-02-26T15:33:57.989Z,11.00
2023-02-26T15:36:27.283Z,11.50
2023-02-26T15:38:58.517Z,11.70
2023-02-26T15:41:29.529Z,11.60
2023-02-26T15:44:01.448Z,11.20
2023-02-26T15:46:36.245Z,11.00
2023-02-26T15:49:09.450Z,10.70
2023-02-26T15:51:38.356Z,11.00
2023-02-26T15:54:07.890Z,11.10
2023-02-26T15:56:42.582Z,11.20
2023-02-26T15:59:14.703Z,11.30
2023-02-26T16:01:44.911Z,11.40
2023-02-26T16:04:17.215Z,11.40
2023-02-26T16:06:48.233Z,11.40
2023-02-26T16:09:19.479Z,11.40
2023-02-26T16:11:50.799Z,11.60
2023-02-26T16:14:23.958Z,11.70
2023-02-26T16:16:55.466Z,11.40
2023-02-26T16:19:32.946Z,11.30
2023-02-26T16:22:04.118Z,11.10
2023-02-26T16:24:34.946Z,10.70
2023-02-26T16:27:08.698Z,10.00
2023-02-26T16:29:38.184Z,9.70
2023-02-26T16:32:11.954Z,9.60
2023-02-26T16:34:44.863Z,9.70
2023-02-26T16:37:27.071Z,9.50
2023-02-26T16:40:06.362Z,9.40
2023-02-26T16:42:45.053Z,9.60
2023-02-26T16:45:21.462Z,9.50
2023-02-26T16:47:54.203Z,9.50
2023-02-26T16:50:26.391Z,9.80
2023-02-26T16:53:02.330Z,9.80
2023-02-26T16:55:32.665Z,9.80
2023-02-26T16:58:07.455Z,9.60
2023-02-26T17:00:37.395Z,9.30
2023-02-26T17:03:12.445Z,9.30
2023-02-26T17:05:43.937Z,9.40
2023-02-26T17:08:18.709Z,9.40
2023-02-26T17:10:51.946Z,9.40
2023-02-26T17:13:26.972Z,9.40
2023-02-26T17:15:59.752Z,9.40
2023-02-26T17:18:30.638Z,9.50
2023-02-26T17:21:04.102Z,9.70
2023-02-26T17:23:37.150Z,9.60
2023-02-26T17:26:06.149Z,9.70
2023-02-26T17:28:40.255Z,9.60
2023-02-26T17:31:11.985Z,9.50
2023-02-26T17:33:46.045Z,9.50
2023-02-26T17:36:18.696Z,9.60
2023-02-26T17:38:48.794Z,9.30
2023-02-26T17:41:19.424Z,9.20
2023-02-26T17:43:48.242Z,9.30
2023-02-26T17:46:16.697Z,9.20
2023-02-26T17:48:46.921Z,9.30
2023-02-26T17:51:16.153Z,9.20
2023-02-26T17:53:46.505Z,9.20
2023-02-26T17:56:22.138Z,9.20
2023-02-26T17:58:54.445Z,9.30
2023-02-26T18:01:25.311Z,9.30
2023-02-26T18:03:55.566Z,9.20
2023-02-26T18:06:25.912Z,9.30
2023-02-26T18:08:54.513Z,9.40
2023-02-26T18:11:25.892Z,9.40
2023-02-26T18:13:55.607Z,9.30
2023-02-26T18:16:29.676Z,9.40
2023-02-26T18:19:02.330Z,9.40
2023-02-26T18:21:31.111Z,9.80
2023-02-26T18:24:00.961Z,9.50
2023-02-26T18:26:33.046Z,9.60
2023-02-26T18:29:01.436Z,9.70
2023-02-26T18:31:36.513Z,9.50
2023-02-26T18:34:06.878Z,9.50
2023-02-26T18:36:40.064Z,9.60
2023-02-26T18:39:13.680Z,9.60
2023-02-26T18:41:41.861Z,9.40
2023-02-26T18:44:11.673Z,9.30
2023-02-26T18:46:41.667Z,9.20
2023-02-26T18:49:18.173Z,8.90
2023-02-26T18:51:46.262Z,8.90
2023-02-26T18:54:16.010Z,8.90
2023-02-26T18:56:46.154Z,8.90
2023-02-26T18:59:14.262Z,8.90
2023-02-26T19:01:42.543Z,8.90
2023-02-26T19:04:12.302Z,8.80
2023-02-26T19:06:40.408Z,8.70
2023-02-26T19:09:09.496Z,8.50
2023-02-26T19:11:38.409Z,8.40
2023-02-26T19:14:06.912Z,8.50
2023-02-26T19:16:38.576Z,8.40
2023-02-26T19:19:10.110Z,8.40
2023-02-26T19:21:43.956Z,8.20
2023-02-26T19:24:13.890Z,8.10
2023-02-26T19:26:44.190Z,8.00
2023-02-26T19:29:16.988Z,8.10
2023-02-26T19:31:45.366Z,8.20
2023-02-26T19:34:13.731Z,8.20
2023-02-26T19:36:48.964Z,8.20
2023-02-26T19:39:19.392Z,8.40
2023-02-26T19:41:50.752Z,8.30
2023-02-26T19:44:20.841Z,8.50
2023-02-26T19:46:48.982Z,8.30
2023-02-26T19:49:17.440Z,8.20
2023-02-26T19:51:49.493Z,8.00
2023-02-26T19:54:20.995Z,8.10
2023-02-26T19:56:49.766Z,8.10
2023-02-26T19:59:18.575Z,8.00
2023-02-26T20:01:49.457Z,7.90
2023-02-26T20:04:18.571Z,7.70
2023-02-26T20:06:47.913Z,7.80
2023-02-26T20:09:17.153Z,7.90
2023-02-26T20:11:45.160Z,7.80
2023-02-26T20:14:13.644Z,7.90
2023-02-26T20:16:41.679Z,8.00
2023-02-26T20:19:10.328Z,8.10
2023-02-26T20:21:38.779Z,8.20
2023-02-26T20:24:09.367Z,8.30
2023-02-26T20:26:37.866Z,8.30
2023-02-26T20:29:06.172Z,8.50
2023-02-26T20:31:34.206Z,8.50
2023-02-26T20:34:02.740Z,8.40
2023-02-26T20:36:30.724Z,8.50
2023-02-26T20:38:58.765Z,8.40
2023-02-26T20:41:28.926Z,8.50
2023-02-26T20:43:59.440Z,8.40
2023-02-26T20:46:27.557Z,8.40
2023-02-26T20:48:55.649Z,8.50
2023-02-26T20:51:23.758Z,8.30
2023-02-26T20:53:52.046Z,8.40
2023-02-26T20:56:21.118Z,8.30
2023-02-26T20:58:50.827Z,8.40
2023-02-26T21:01:41.141Z,8.40
2023-02-26T21:04:10.816Z,8.30
2023-02-26T21:06:39.018Z,8.40
2023-02-26T21:09:08.600Z,8.60
2023-02-26T21:11:37.275Z,8.70
2023-02-26T21:14:08.355Z,8.60
2023-02-26T21:16:36.805Z,8.80
2023-02-26T21:19:04.892Z,8.60
2023-02-26T21:21:33.440Z,8.50
2023-02-26T21:24:02.491Z,8.70
2023-02-26T21:26:31.053Z,8.70
2023-02-26T21:28:59.978Z,8.80
2023-02-26T21:31:30.075Z,8.80
2023-02-26T21:34:00.698Z,8.90
2023-02-26T21:36:31.017Z,8.90
2023-02-26T21:38:59.473Z,8.70
2023-02-26T21:41:27.840Z,8.60
2023-02-26T21:43:57.015Z,8.70
2023-02-26T21:46:25.223Z,8.70
2023-02-26T21:48:55.002Z,8.70
2023-02-26T21:51:23.423Z,8.80
2023-02-26T21:53:51.417Z,8.90
2023-02-26T21:56:20.343Z,8.90
2023-02-26T21:58:48.842Z,9.10
2023-02-26T22:01:16.994Z,9.10
2023-02-26T22:03:45.068Z,8.90
2023-02-26T22:06:14.752Z,9.00
2023-02-26T22:08:42.967Z,8.60
2023-02-26T22:11:12.042Z,8.50
2023-02-26T22:13:40.103Z,8.50
2023-02-26T22:16:10.517Z,8.50
2023-02-26T22:18:38.889Z,8.40
2023-02-26T22:21:07.310Z,8.10
2023-02-26T22:23:39.172Z,8.00
2023-02-26T22:26:08.817Z,8.30
2023-02-26T22:28:37.294Z,8.30
2023-02-26T22:31:07.128Z,8.20
2023-02-26T22:33:35.225Z,8.40
2023-02-26T22:36:04.200Z,8.40
2023-02-26T22:38:32.508Z,8.30
2023-02-26T22:41:01.843Z,8.20
2023-02-26T22:43:29.931Z,8.10
2023-02-26T22:45:58.023Z,8.00
2023-02-26T22:48:28.700Z,8.10
2023-02-26T22:50:58.450Z,8.10
2023-02-26T22:53:27.549Z,8.10
2023-02-26T22:55:55.773Z,8.20
2023-02-26T22:58:25.138Z,8.20
2023-02-26T23:01:00.925Z,8.20
2023-02-26T23:03:30.437Z,8.50
2023-02-26T23:05:59.899Z,8.30
2023-02-26T23:08:29.095Z,8.30
2023-02-26T23:10:59.051Z,8.10
2023-02-26T23:13:30.981Z,8.30
2023-02-26T23:15:59.456Z,8.30
2023-02-26T23:18:27.498Z,8.10
2023-02-26T23:20:56.549Z,8.40
2023-02-26T23:23:24.770Z,8.20
2023-02-26T23:25:54.748Z,8.10
2023-02-26T23:28:25.260Z,8.00
2023-02-26T23:30:54.863Z,8.20
2023-02-26T23:33:23.509Z,8.30
2023-02-26T23:35:52.666Z,8.40
2023-02-26T23:38:23.314Z,8.20
2023-02-26T23:40:52.285Z,8.30
2023-02-26T23:43:20.659Z,8.50
2023-02-26T23:45:50.112Z,8.20
2023-02-26T23:48:19.531Z,8.30
2023-02-26T23:50:49.330Z,8.20
2023-02-26T23:53:17.400Z,8.20
2023-02-26T23:55:45.408Z,8.30
2023-02-26T23:58:14.324Z,8.30
